Time;durP1;ratioP1;P1;durP2;ratioP2;P2;SDS_P1;SDS_P2;PMS_P1;PMS_P2;Temp;Humidity;BMP_temperature;BMP_pressure;BME280_temperature;BME280_humidity;BME280_pressure;Samples;Min_cycle;Max_cycle;Signal;HPM_P1;HPM_P2
2020/12/15 00:00:45;;;;;;;2.85;0.90;;;12.50;92.90;;;;;;4168534;28;20406;-85
2020/12/15 00:02:46;;;;;;;0.10;0.10;;;12.50;92.90;;;;;;4158243;28;20079;-85
2020/12/15 00:04:47;;;;;;;0.17;0.15;;;12.50;92.90;;;;;;4183566;28;20053;-86
2020/12/15 00:06:49;;;;;;;0.20;0.20;;;12.40;92.80;;;;;;4179676;28;20056;-85
2020/12/15 00:08:50;;;;;;;0.90;0.15;;;12.50;93.20;;;;;;4171158;28;20049;-85
2020/12/15 00:10:51;;;;;;;0.57;0.57;;;12.40;92.90;;;;;;4167062;28;20444;-86
2020/12/15 00:12:52;;;;;;;1.27;0.55;;;12.40;92.90;;;;;;4176100;28;20059;-87
2020/12/15 00:14:54;;;;;;;0.10;0.10;;;12.50;92.90;;;;;;4179561;28;20139;-86
2020/12/15 00:16:58;;;;;;;0.55;0.22;;;12.50;92.80;;;;;;4162424;28;20045;-87
2020/12/15 00:19:00;;;;;;;2.60;1.85;;;12.50;92.80;;;;;;4177460;28;20084;-86
2020/12/15 00:21:01;;;;;;;0.10;0.10;;;12.50;92.70;;;;;;4179169;28;20095;-86
2020/12/15 00:23:03;;;;;;;0.15;0.15;;;12.60;92.70;;;;;;4168787;28;20053;-86
2020/12/15 00:25:04;;;;;;;1.10;0.65;;;12.60;92.80;;;;;;4179867;28;20087;-86
2020/12/15 00:27:05;;;;;;;0.22;0.20;;;12.60;92.60;;;;;;4176822;28;20067;-86
2020/12/15 00:29:07;;;;;;;1.27;0.40;;;12.50;92.70;;;;;;4179568;28;20512;-85
2020/12/15 00:31:09;;;;;;;0.35;0.30;;;12.60;92.60;;;;;;4161780;28;20046;-86
2020/12/15 00:33:10;;;;;;;1.10;0.75;;;12.60;92.60;;;;;;4195845;28;20436;-86
2020/12/15 00:35:11;;;;;;;0.30;0.20;;;12.60;92.50;;;;;;4154071;28;20052;-86
2020/12/15 00:37:13;;;;;;;0.40;0.20;;;12.60;92.40;;;;;;4179360;28;20057;-86
2020/12/15 00:39:14;;;;;;;1.42;0.43;;;12.60;92.40;;;;;;4162494;28;20056;-86
2020/12/15 00:41:15;;;;;;;0.35;0.35;;;12.50;92.40;;;;;;4154086;28;20408;-86
2020/12/15 00:43:17;;;;;;;0.32;0.10;;;12.60;92.40;;;;;;4163043;28;20508;-86
2020/12/15 00:45:18;;;;;;;1.02;0.20;;;12.50;92.50;;;;;;4178854;28;20171;-86
2020/12/15 00:47:20;;;;;;;1.45;0.73;;;12.50;92.50;;;;;;4187449;28;20070;-86
2020/12/15 00:49:21;;;;;;;0.10;0.10;;;12.50;92.50;;;;;;4147183;28;20148;-86
2020/12/15 00:51:23;;;;;;;0.20;0.20;;;12.50;92.50;;;;;;4181525;28;20558;-86
2020/12/15 00:53:24;;;;;;;1.75;0.47;;;12.50;92.40;;;;;;4179015;28;20580;-87
2020/12/15 00:55:26;;;;;;;1.02;0.30;;;12.50;92.60;;;;;;4196013;28;20049;-86
2020/12/15 00:57:27;;;;;;;0.38;0.30;;;12.50;92.80;;;;;;4179180;28;20061;-86
2020/12/15 00:59:29;;;;;;;0.10;0.10;;;12.50;92.50;;;;;;4179390;28;20431;-86
2020/12/15 01:01:30;;;;;;;0.10;0.10;;;12.50;92.50;;;;;;4179362;28;20056;-86
2020/12/15 01:03:32;;;;;;;0.10;0.10;;;12.40;92.50;;;;;;4179357;28;20493;-86
2020/12/15 01:05:33;;;;;;;0.20;0.20;;;12.50;92.60;;;;;;4177448;28;20045;-87
2020/12/15 01:07:34;;;;;;;0.20;0.15;;;12.50;92.60;;;;;;4178635;28;20049;-85
2020/12/15 01:09:36;;;;;;;0.32;0.10;;;12.50;92.60;;;;;;4179509;28;20045;-86
2020/12/15 01:11:37;;;;;;;0.50;0.50;;;12.50;92.70;;;;;;4173359;28;20056;-86
2020/12/15 01:13:39;;;;;;;0.10;0.10;;;12.50;92.80;;;;;;4177805;28;20061;-85
2020/12/15 01:15:41;;;;;;;0.17;0.17;;;12.50;92.70;;;;;;4175018;28;20045;-86
2020/12/15 01:17:42;;;;;;;0.57;0.20;;;12.50;92.80;;;;;;4177966;28;20051;-86
2020/12/15 01:19:43;;;;;;;0.35;0.22;;;12.50;92.90;;;;;;4166339;28;20054;-86
2020/12/15 01:21:45;;;;;;;0.10;0.10;;;12.50;92.90;;;;;;4195961;28;20492;-86
2020/12/15 01:23:46;;;;;;;0.47;0.47;;;12.50;92.90;;;;;;4174225;28;20059;-85
2020/12/15 01:25:47;;;;;;;8.30;0.77;;;12.40;93.00;;;;;;4166609;28;20939;-87
2020/12/15 01:27:48;;;;;;;0.17;0.17;;;12.50;93.20;;;;;;4210637;28;20056;-86
2020/12/15 01:29:49;;;;;;;0.20;0.10;;;12.50;93.00;;;;;;4195220;28;20053;-85
2020/12/15 01:31:51;;;;;;;0.43;0.30;;;12.50;93.00;;;;;;4166260;28;20041;-86
2020/12/15 01:33:52;;;;;;;0.65;0.30;;;12.40;93.00;;;;;;4179484;28;20097;-86
2020/12/15 01:35:55;;;;;;;0.10;0.10;;;12.50;92.90;;;;;;4172660;28;20501;-86
2020/12/15 01:37:56;;;;;;;0.10;0.10;;;12.50;92.90;;;;;;4198218;28;20078;-86
2020/12/15 01:39:57;;;;;;;0.15;0.10;;;12.50;93.00;;;;;;4198870;28;20056;-85
2020/12/15 01:41:59;;;;;;;0.10;0.10;;;12.40;93.10;;;;;;4195498;28;20047;-86
2020/12/15 01:44:01;;;;;;;0.40;0.20;;;12.50;93.10;;;;;;4185909;28;20048;-85
2020/12/15 01:46:03;;;;;;;0.30;0.20;;;12.50;93.10;;;;;;4179865;28;20104;-85
2020/12/15 01:48:04;;;;;;;0.20;0.10;;;12.50;93.10;;;;;;4180964;28;20540;-85
2020/12/15 01:50:05;;;;;;;0.15;0.15;;;12.50;93.00;;;;;;4185448;28;20044;-86
2020/12/15 01:52:06;;;;;;;0.43;0.25;;;12.50;92.90;;;;;;4204511;28;20139;-86
2020/12/15 01:54:07;;;;;;;0.10;0.10;;;12.50;93.00;;;;;;4191547;28;20413;-87
2020/12/15 01:56:09;;;;;;;0.15;0.15;;;12.50;93.00;;;;;;4172272;28;20056;-85
2020/12/15 01:58:10;;;;;;;0.30;0.10;;;12.50;93.00;;;;;;4182049;28;20132;-87
2020/12/15 02:00:13;;;;;;;0.47;0.10;;;12.50;93.00;;;;;;4214481;28;20083;-86
2020/12/15 02:02:14;;;;;;;0.10;0.10;;;12.50;93.00;;;;;;4181950;28;20045;-86
2020/12/15 02:04:16;;;;;;;0.10;0.10;;;12.50;93.00;;;;;;4181742;28;20053;-85
2020/12/15 02:06:20;;;;;;;0.30;0.20;;;12.50;93.10;;;;;;4197992;28;20453;-86
2020/12/15 02:08:21;;;;;;;0.63;0.57;;;12.50;93.10;;;;;;4198584;28;20045;-86
2020/12/15 02:10:23;;;;;;;1.35;0.35;;;12.50;93.10;;;;;;4198346;28;20049;-86
2020/12/15 02:12:24;;;;;;;0.10;0.10;;;12.50;93.20;;;;;;4171431;28;20594;-86
2020/12/15 02:14:26;;;;;;;0.10;0.10;;;12.40;93.30;;;;;;4187083;28;20064;-86
2020/12/15 02:16:28;;;;;;;4.13;0.20;;;12.40;93.30;;;;;;4165752;28;20430;-86
2020/12/15 02:18:29;;;;;;;0.10;0.10;;;12.40;93.30;;;;;;4171808;28;20045;-86
2020/12/15 02:20:31;;;;;;;0.20;0.10;;;12.40;93.30;;;;;;4174470;28;20114;-86
2020/12/15 02:22:32;;;;;;;0.13;0.10;;;12.40;93.40;;;;;;4181568;28;20053;-91
2020/12/15 02:24:33;;;;;;;0.10;0.10;;;12.40;93.40;;;;;;4213260;28;20052;-86
2020/12/15 02:26:35;;;;;;;2.92;0.95;;;12.40;93.40;;;;;;4180785;28;20132;-86
2020/12/15 02:28:36;;;;;;;6.22;0.30;;;12.40;93.40;;;;;;4181772;28;20055;-86
2020/12/15 02:30:38;;;;;;;0.68;0.47;;;12.40;93.50;;;;;;4197848;28;20052;-84
2020/12/15 02:32:40;;;;;;;0.45;0.38;;;12.40;93.50;;;;;;4197436;28;20060;-86
2020/12/15 02:34:42;;;;;;;0.32;0.28;;;12.40;93.40;;;;;;4197994;28;20058;-86
2020/12/15 02:36:44;;;;;;;2.15;1.55;;;12.40;93.60;;;;;;4181972;28;20052;-89
2020/12/15 02:38:45;;;;;;;0.63;0.40;;;12.40;93.50;;;;;;4180825;28;20049;-86
2020/12/15 02:40:47;;;;;;;0.10;0.10;;;12.40;93.60;;;;;;4197439;28;20127;-85
2020/12/15 02:42:48;;;;;;;0.47;0.10;;;12.40;93.60;;;;;;4197645;28;20053;-85
2020/12/15 02:44:49;;;;;;;0.20;0.20;;;12.40;93.60;;;;;;4180702;28;20063;-86
2020/12/15 02:46:51;;;;;;;0.38;0.38;;;12.40;93.60;;;;;;4196995;28;20050;-86
2020/12/15 02:48:54;;;;;;;0.20;0.20;;;12.50;93.70;;;;;;4197706;28;20416;-85
2020/12/15 02:50:55;;;;;;;0.60;0.60;;;12.50;93.70;;;;;;4197166;28;20052;-86
2020/12/15 02:52:56;;;;;;;3.22;0.20;;;12.50;93.70;;;;;;4184900;28;20079;-86
2020/12/15 02:54:58;;;;;;;0.20;0.17;;;12.50;93.70;;;;;;4178662;28;20432;-85
2020/12/15 02:56:59;;;;;;;0.10;0.10;;;12.50;93.60;;;;;;4180375;28;20120;-88
2020/12/15 02:59:00;;;;;;;0.98;0.55;;;12.50;93.70;;;;;;4167169;28;20049;-85
2020/12/15 03:01:02;;;;;;;0.32;0.32;;;12.50;93.70;;;;;;4181050;28;20051;-89
2020/12/15 03:03:03;;;;;;;0.10;0.10;;;12.50;93.70;;;;;;4186510;28;20528;-86
2020/12/15 03:05:05;;;;;;;0.10;0.10;;;12.50;93.60;;;;;;4187204;28;20479;-85
2020/12/15 03:07:06;;;;;;;0.10;0.10;;;12.60;93.50;;;;;;4181140;28;20132;-87
2020/12/15 03:09:09;;;;;;;0.10;0.10;;;12.60;93.50;;;;;;4180462;28;20144;-86
2020/12/15 03:11:11;;;;;;;0.13;0.13;;;12.60;93.60;;;;;;4180701;28;20057;-86
2020/12/15 03:13:12;;;;;;;0.20;0.20;;;12.60;93.50;;;;;;4197213;28;20054;-86
2020/12/15 03:15:14;;;;;;;0.40;0.40;;;12.60;93.60;;;;;;4196170;28;20056;-86
2020/12/15 03:17:16;;;;;;;0.10;0.10;;;12.60;93.60;;;;;;4180623;28;20478;-86
2020/12/15 03:19:17;;;;;;;0.85;0.22;;;12.60;93.50;;;;;;4181128;28;20135;-86
2020/12/15 03:21:20;;;;;;;0.10;0.10;;;12.70;93.50;;;;;;4197054;28;20055;-86
2020/12/15 03:23:22;;;;;;;0.10;0.10;;;12.60;93.50;;;;;;4188589;28;20451;-86
2020/12/15 03:25:24;;;;;;;0.50;0.20;;;12.60;93.60;;;;;;4180780;28;20108;-84
2020/12/15 03:27:25;;;;;;;0.10;0.10;;;12.60;93.70;;;;;;4195934;28;20055;-86
2020/12/15 03:29:26;;;;;;;0.10;0.10;;;12.60;93.80;;;;;;4180041;28;20148;-85
2020/12/15 03:31:29;;;;;;;0.10;0.10;;;12.60;93.90;;;;;;4197339;28;20135;-86
2020/12/15 03:33:30;;;;;;;0.10;0.10;;;12.60;94.00;;;;;;4179929;28;20049;-86
2020/12/15 03:35:32;;;;;;;0.25;0.10;;;12.60;93.90;;;;;;4176700;28;20057;-86
2020/12/15 03:37:33;;;;;;;0.20;0.10;;;12.60;93.90;;;;;;4196583;28;20098;-87
2020/12/15 03:39:35;;;;;;;0.10;0.10;;;12.60;93.90;;;;;;4178536;28;20056;-86
2020/12/15 03:41:37;;;;;;;0.95;0.95;;;12.60;93.90;;;;;;4180645;28;20045;-86
2020/12/15 03:43:38;;;;;;;0.10;0.10;;;12.60;93.90;;;;;;4182427;28;20056;-85
2020/12/15 03:45:42;;;;;;;0.10;0.10;;;12.60;94.20;;;;;;4197471;28;20062;-86
2020/12/15 03:47:43;;;;;;;2.70;0.20;;;12.60;94.00;;;;;;4191202;28;20052;-89
2020/12/15 03:49:44;;;;;;;0.10;0.10;;;12.60;94.00;;;;;;4183767;28;20060;-86
2020/12/15 03:51:46;;;;;;;0.10;0.10;;;12.60;94.10;;;;;;4196758;28;20079;-86
2020/12/15 03:53:47;;;;;;;0.30;0.30;;;12.60;94.10;;;;;;4179689;28;20045;-86
2020/12/15 03:55:48;;;;;;;0.10;0.10;;;12.60;94.20;;;;;;4180022;28;20528;-86
2020/12/15 03:57:50;;;;;;;1.60;0.20;;;12.60;94.10;;;;;;4191724;28;20052;-86
2020/12/15 03:59:52;;;;;;;0.73;0.15;;;12.60;94.20;;;;;;4192082;28;20041;-86
2020/12/15 04:01:53;;;;;;;0.10;0.10;;;12.60;94.20;;;;;;4168036;28;20132;-87
2020/12/15 04:03:54;;;;;;;0.10;0.10;;;12.60;94.30;;;;;;4196409;28;20091;-85
2020/12/15 04:05:56;;;;;;;0.93;0.77;;;12.60;94.30;;;;;;4175247;28;20037;-86
2020/12/15 04:07:57;;;;;;;0.08;0.08;;;12.60;94.30;;;;;;4184715;28;20072;-86
2020/12/15 04:09:59;;;;;;;0.20;0.20;;;12.60;94.30;;;;;;4193793;28;20122;-86
2020/12/15 04:12:00;;;;;;;0.17;0.15;;;12.60;94.30;;;;;;4179497;28;20139;-86
2020/12/15 04:14:01;;;;;;;0.30;0.30;;;12.60;94.30;;;;;;4177139;28;20129;-85
2020/12/15 04:16:03;;;;;;;0.57;0.45;;;12.60;94.10;;;;;;4180373;28;20052;-86
2020/12/15 04:18:04;;;;;;;4.47;0.30;;;12.70;94.10;;;;;;4177390;28;20124;-88
2020/12/15 04:20:06;;;;;;;3.75;0.30;;;12.70;94.00;;;;;;4181963;28;20139;-86
2020/12/15 04:22:07;;;;;;;4.88;0.25;;;12.70;94.00;;;;;;4196294;28;20057;-86
2020/12/15 04:24:08;;;;;;;0.30;0.30;;;12.70;94.00;;;;;;4172632;28;20056;-88
2020/12/15 04:26:09;;;;;;;0.10;0.10;;;12.70;94.10;;;;;;4186332;28;20056;-86
2020/12/15 04:28:11;;;;;;;0.10;0.10;;;12.70;94.10;;;;;;4212021;28;20142;-86
2020/12/15 04:30:14;;;;;;;0.10;0.10;;;12.70;94.00;;;;;;4195094;28;20107;-86
2020/12/15 04:32:15;;;;;;;0.10;0.10;;;12.70;94.00;;;;;;4177246;28;20056;-86
2020/12/15 04:34:16;;;;;;;0.30;0.30;;;12.70;93.90;;;;;;4195463;28;20044;-88
2020/12/15 04:36:17;;;;;;;0.10;0.10;;;12.70;93.90;;;;;;4195793;28;20148;-86
2020/12/15 04:38:19;;;;;;;0.10;0.10;;;12.70;93.90;;;;;;4195269;28;20265;-85
2020/12/15 04:40:20;;;;;;;0.20;0.15;;;12.70;93.80;;;;;;4196268;28;20048;-87
2020/12/15 04:42:21;;;;;;;0.10;0.10;;;12.70;93.80;;;;;;4195608;28;20052;-86
2020/12/15 04:44:22;;;;;;;0.20;0.20;;;12.70;93.80;;;;;;4212015;28;20044;-86
2020/12/15 04:46:23;;;;;;;3.63;0.20;;;12.70;93.80;;;;;;4195550;28;20052;-86
2020/12/15 04:48:25;;;;;;;0.22;0.22;;;12.70;93.80;;;;;;4195099;28;20070;-86
2020/12/15 04:50:27;;;;;;;0.40;0.40;;;12.70;93.70;;;;;;4179305;28;20049;-85
2020/12/15 04:52:41;;;;;;;3.13;0.50;;;12.70;93.60;;;;;;4178984;28;20073;-86
2020/12/15 04:54:42;;;;;;;0.30;0.10;;;12.70;93.60;;;;;;4212928;28;20058;-89
2020/12/15 04:56:44;;;;;;;0.10;0.10;;;12.70;93.70;;;;;;4192528;28;20435;-85
2020/12/15 04:58:45;;;;;;;0.10;0.10;;;12.70;93.70;;;;;;4195931;28;20421;-85
2020/12/15 05:00:47;;;;;;;1.33;0.50;;;12.70;93.60;;;;;;4195882;28;20106;-85
2020/12/15 05:02:49;;;;;;;0.10;0.10;;;12.70;93.70;;;;;;4193241;28;20054;-86
2020/12/15 05:04:50;;;;;;;1.27;0.30;;;12.70;93.70;;;;;;4166385;28;20155;-87
2020/12/15 05:06:52;;;;;;;0.95;0.30;;;12.70;93.70;;;;;;4195824;28;20081;-86
2020/12/15 05:08:54;;;;;;;0.10;0.10;;;12.70;93.70;;;;;;4200547;28;20139;-85
2020/12/15 05:10:55;;;;;;;0.65;0.15;;;12.70;93.60;;;;;;4187537;28;20051;-85
2020/12/15 05:12:57;;;;;;;0.45;0.20;;;12.70;93.50;;;;;;4182944;28;20052;-85
2020/12/15 05:14:58;;;;;;;0.10;0.10;;;12.70;93.40;;;;;;4199090;28;20083;-87
2020/12/15 05:16:59;;;;;;;0.20;0.20;;;12.70;93.50;;;;;;4215310;28;20392;-86
2020/12/15 05:19:04;;;;;;;0.10;0.10;;;12.70;93.50;;;;;;4199602;28;20060;-86
2020/12/15 05:21:15;;;;;;;0.38;0.20;;;12.70;93.40;;;;;;4182153;28;20055;-86
2020/12/15 05:23:20;;;;;;;0.52;0.30;;;12.70;93.30;;;;;;4173478;28;20491;-88
2020/12/15 05:25:29;;;;;;;0.20;0.10;;;12.70;93.30;;;;;;4167408;28;20060;-86
2020/12/15 05:27:30;;;;;;;0.20;0.20;;;12.70;93.30;;;;;;4182376;28;20045;-86
2020/12/15 05:29:32;;;;;;;0.40;0.35;;;12.80;93.20;;;;;;4177391;28;20128;-86
2020/12/15 05:31:33;;;;;;;0.28;0.17;;;12.70;93.40;;;;;;4184220;28;20049;-87
2020/12/15 05:33:35;;;;;;;2.00;1.38;;;12.70;93.30;;;;;;4182346;28;20053;-86
2020/12/15 05:35:40;;;;;;;;;;;12.70;93.80;;;;;;4198622;28;20063;-85
2020/12/15 05:37:45;;;;;;;0.10;0.10;;;12.70;93.50;;;;;;4199591;28;20306;-85
2020/12/15 05:39:46;;;;;;;0.30;0.30;;;12.60;93.70;;;;;;4182512;28;20048;-86
2020/12/15 05:41:50;;;;;;;1.40;0.25;;;12.60;93.50;;;;;;4181743;28;20049;-85
2020/12/15 05:43:52;;;;;;;0.10;0.10;;;12.60;93.60;;;;;;4182335;28;20559;-85
2020/12/15 05:45:53;;;;;;;0.10;0.10;;;12.60;93.50;;;;;;4199178;28;20051;-85
2020/12/15 05:48:05;;;;;;;0.10;0.10;;;12.60;93.60;;;;;;4197832;28;20564;-85
2020/12/15 05:50:06;;;;;;;0.20;0.17;;;12.60;93.50;;;;;;4214942;28;20071;-86
2020/12/15 05:52:07;;;;;;;0.10;0.10;;;12.60;93.50;;;;;;4195861;28;20063;-86
2020/12/15 05:54:13;;;;;;;0.28;0.20;;;12.60;93.50;;;;;;4181559;28;20120;-86
2020/12/15 05:56:20;;;;;;;;;;;12.70;93.50;;;;;;4189807;28;20059;-85
2020/12/15 05:58:21;;;;;;;0.10;0.10;;;12.60;93.50;;;;;;4181981;28;19984;-86
2020/12/15 06:00:32;;;;;;;1.85;0.17;;;12.60;93.50;;;;;;4198440;28;20415;-85
2020/12/15 06:02:34;;;;;;;1.42;0.45;;;12.60;93.70;;;;;;4175998;28;20397;-86
2020/12/15 06:04:36;;;;;;;0.10;0.10;;;12.60;93.80;;;;;;4181251;28;20057;-87
2020/12/15 06:06:39;;;;;;;0.85;0.80;;;12.60;93.80;;;;;;4182518;28;20416;-85
2020/12/15 06:08:40;;;;;;;0.17;0.10;;;12.60;93.60;;;;;;4194144;28;20044;-87
2020/12/15 06:10:43;;;;;;;0.15;0.15;;;12.60;93.70;;;;;;4198134;28;20112;-88
2020/12/15 06:12:48;;;;;;;0.10;0.10;;;12.60;93.70;;;;;;4182121;28;20084;-86
2020/12/15 06:14:50;;;;;;;;;;;12.60;93.70;;;;;;4194690;28;20496;-86
2020/12/15 06:16:51;;;;;;;0.20;0.20;;;12.60;94.00;;;;;;4202413;28;19930;-87
2020/12/15 06:19:01;;;;;;;0.10;0.10;;;12.50;94.10;;;;;;4199168;28;20052;-85
2020/12/15 06:21:10;;;;;;;0.70;0.47;;;12.50;94.00;;;;;;4175232;28;20054;-86
2020/12/15 06:23:12;;;;;;;0.45;0.45;;;12.50;93.90;;;;;;4186802;28;20044;-86
2020/12/15 06:25:26;;;;;;;0.10;0.10;;;12.50;94.00;;;;;;4180878;28;20087;-86
2020/12/15 06:27:33;;;;;;;0.10;0.10;;;12.50;93.80;;;;;;4171985;28;20049;-87
2020/12/15 06:29:38;;;;;;;0.32;0.10;;;12.50;93.90;;;;;;4197203;28;20127;-86
2020/12/15 06:31:49;;;;;;;0.22;0.22;;;12.50;94.20;;;;;;4167839;28;20053;-86
2020/12/15 06:33:57;;;;;;;0.35;0.30;;;12.50;94.30;;;;;;4165238;28;20045;-86
2020/12/15 06:35:59;;;;;;;0.52;0.25;;;12.40;94.50;;;;;;4194609;28;20054;-85
2020/12/15 06:38:00;;;;;;;0.15;0.10;;;12.40;94.30;;;;;;4180889;28;20053;-87
2020/12/15 06:40:04;;;;;;;0.65;0.28;;;12.40;94.30;;;;;;4184120;28;20053;-86
2020/12/15 06:42:07;;;;;;;3.30;0.45;;;12.40;94.10;;;;;;4184599;28;20055;-85
2020/12/15 06:44:08;;;;;;;0.43;0.43;;;12.40;94.20;;;;;;4171975;28;20052;-86
2020/12/15 06:46:11;;;;;;;1.08;0.15;;;12.40;94.20;;;;;;4196761;28;20053;-86
2020/12/15 06:48:14;;;;;;;0.10;0.10;;;12.40;94.00;;;;;;4180338;28;20424;-87
2020/12/15 06:50:17;;;;;;;0.10;0.10;;;12.50;93.90;;;;;;4180139;28;20049;-87
2020/12/15 06:52:26;;;;;;;1.00;1.00;;;12.50;93.90;;;;;;4180655;28;20060;-86
2020/12/15 06:54:28;;;;;;;0.10;0.10;;;12.50;94.20;;;;;;4197615;28;20054;-86
2020/12/15 06:56:30;;;;;;;0.10;0.10;;;12.40;94.20;;;;;;4195931;28;20135;-86
2020/12/15 06:58:32;;;;;;;0.10;0.10;;;12.40;94.10;;;;;;4166079;28;20065;-87
2020/12/15 07:00:42;;;;;;;0.10;0.10;;;12.40;94.00;;;;;;4179453;28;20409;-86
2020/12/15 07:02:50;;;;;;;0.10;0.10;;;12.40;94.10;;;;;;4181513;28;20064;-86
2020/12/15 07:04:51;;;;;;;0.10;0.10;;;12.40;94.10;;;;;;4177042;28;20061;-85
2020/12/15 07:07:03;;;;;;;0.10;0.10;;;12.40;94.00;;;;;;4176950;28;20114;-85
2020/12/15 07:09:09;;;;;;;1.45;0.63;;;12.40;94.10;;;;;;4176530;28;20057;-86
2020/12/15 07:11:10;;;;;;;0.17;0.17;;;12.40;94.10;;;;;;4197087;28;20063;-85
2020/12/15 07:13:11;;;;;;;0.10;0.10;;;12.40;94.10;;;;;;4181107;28;20436;-86
2020/12/15 07:15:13;;;;;;;0.10;0.10;;;12.40;94.20;;;;;;4172848;28;20500;-86
2020/12/15 07:17:17;;;;;;;0.10;0.10;;;12.40;94.20;;;;;;4172167;28;20049;-84
2020/12/15 07:19:18;;;;;;;0.10;0.10;;;12.40;94.20;;;;;;4181502;28;20096;-85
2020/12/15 07:21:21;;;;;;;0.35;0.25;;;12.40;94.30;;;;;;4205726;28;20055;-89
2020/12/15 07:23:22;;;;;;;0.10;0.10;;;12.30;94.60;;;;;;4206157;28;20136;-90
2020/12/15 07:25:23;;;;;;;0.10;0.10;;;12.30;94.50;;;;;;4214741;28;20054;-89
2020/12/15 07:27:25;;;;;;;0.13;0.10;;;12.30;94.50;;;;;;4214417;28;20044;-88
2020/12/15 07:29:26;;;;;;;1.60;0.47;;;12.30;94.60;;;;;;4182400;28;20436;-89
2020/12/15 07:31:29;;;;;;;0.10;0.10;;;12.30;94.70;;;;;;4199050;28;20051;-88
2020/12/15 07:33:31;;;;;;;0.13;0.10;;;12.30;94.70;;;;;;4201281;28;20053;-89
2020/12/15 07:35:34;;;;;;;0.10;0.10;;;12.30;94.70;;;;;;4214476;28;20046;-91
2020/12/15 07:37:42;;;;;;;0.10;0.10;;;12.30;94.90;;;;;;4216188;28;20082;-89
2020/12/15 07:39:43;;;;;;;0.10;0.10;;;12.30;94.80;;;;;;4215876;28;20079;-91
2020/12/15 07:42:01;;;;;;;0.10;0.10;;;12.30;94.90;;;;;;4180400;28;20044;-92
2020/12/15 07:44:19;;;;;;;0.10;0.10;;;12.30;94.90;;;;;;4213866;28;20059;-90
2020/12/15 07:46:23;;;;;;;0.15;0.10;;;12.30;95.00;;;;;;4214089;28;20051;-92
2020/12/15 07:48:27;;;;;;;0.20;0.20;;;12.30;94.80;;;;;;4208180;28;20071;-91
2020/12/15 07:50:29;;;;;;;0.20;0.20;;;12.30;94.60;;;;;;4196932;28;20090;-92
2020/12/15 07:52:36;;;;;;;0.30;0.20;;;12.30;94.80;;;;;;4226521;28;20084;-89
2020/12/15 07:54:37;;;;;;;0.52;0.52;;;12.30;94.50;;;;;;4212757;28;20470;-91
2020/12/15 07:56:38;;;;;;;1.77;0.13;;;12.30;94.30;;;;;;4213060;28;20040;-90
2020/12/15 07:58:41;;;;;;;1.38;0.30;;;12.40;94.70;;;;;;4197206;28;20052;-91
2020/12/15 08:00:43;;;;;;;0.10;0.10;;;12.30;94.50;;;;;;4196126;28;20051;-89
2020/12/15 08:02:45;;;;;;;1.10;0.65;;;12.30;94.30;;;;;;4212893;28;20428;-87
2020/12/15 08:04:46;;;;;;;0.15;0.15;;;12.40;94.40;;;;;;4203191;28;20412;-91
2020/12/15 08:06:48;;;;;;;0.10;0.10;;;12.30;94.40;;;;;;4217864;28;20130;-90
2020/12/15 08:08:49;;;;;;;0.10;0.10;;;12.30;94.40;;;;;;4199165;28;20052;-91
2020/12/15 08:10:50;;;;;;;0.73;0.50;;;12.30;94.30;;;;;;4221119;28;20044;-90
2020/12/15 08:12:52;;;;;;;0.88;0.22;;;12.30;94.20;;;;;;4206374;28;20489;-91
2020/12/15 08:14:54;;;;;;;0.10;0.10;;;12.30;94.10;;;;;;4198212;28;20045;-89
2020/12/15 08:16:55;;;;;;;0.93;0.10;;;12.40;94.00;;;;;;4201772;28;20044;-91
2020/12/15 08:18:58;;;;;;;0.80;0.80;;;12.40;94.00;;;;;;4197370;28;20048;-88
2020/12/15 08:21:00;;;;;;;0.10;0.10;;;12.40;94.10;;;;;;4196184;28;20040;-90
2020/12/15 08:23:17;;;;;;;0.38;0.20;;;12.40;93.90;;;;;;4201399;28;20045;-90
2020/12/15 08:25:19;;;;;;;0.45;0.30;;;12.40;93.80;;;;;;4216153;28;20048;-89
2020/12/15 08:27:26;;;;;;;0.10;0.10;;;12.40;93.70;;;;;;4188995;28;20049;-90
2020/12/15 08:29:28;;;;;;;0.10;0.10;;;12.40;93.90;;;;;;4196313;28;20044;-90
2020/12/15 08:31:29;;;;;;;0.10;0.10;;;12.40;93.60;;;;;;4196599;28;20044;-89
2020/12/15 08:33:31;;;;;;;0.10;0.10;;;12.40;93.60;;;;;;4180470;28;20110;-89
2020/12/15 08:35:33;;;;;;;0.20;0.20;;;12.50;93.70;;;;;;4190553;28;20279;-89
2020/12/15 08:37:37;;;;;;;1.23;0.40;;;12.50;93.30;;;;;;4197063;28;20048;-90
2020/12/15 08:39:38;;;;;;;0.10;0.10;;;12.50;93.30;;;;;;4170588;28;20046;-90
2020/12/15 08:42:00;;;;;;;0.43;0.20;;;12.50;93.10;;;;;;4174937;28;20064;-90
2020/12/15 08:44:01;;;;;;;0.10;0.10;;;12.60;93.00;;;;;;4213033;28;20044;-89
2020/12/15 08:46:03;;;;;;;1.00;0.10;;;12.60;93.00;;;;;;4214490;28;20052;-88
2020/12/15 08:48:05;;;;;;;0.10;0.10;;;12.60;92.80;;;;;;4198498;28;20045;-88
2020/12/15 08:50:11;;;;;;;0.13;0.13;;;12.60;92.70;;;;;;4220428;28;20058;-90
2020/12/15 08:52:22;;;;;;;0.10;0.10;;;12.60;92.60;;;;;;4219330;28;20060;-88
2020/12/15 08:54:24;;;;;;;0.10;0.10;;;12.60;92.70;;;;;;4205628;28;20401;-90
2020/12/15 08:56:29;;;;;;;0.20;0.10;;;12.60;92.50;;;;;;4189168;28;20041;-88
2020/12/15 08:58:30;;;;;;;0.10;0.10;;;12.60;92.40;;;;;;4200297;28;20070;-89
2020/12/15 09:00:36;;;;;;;0.10;0.10;;;12.60;92.20;;;;;;4215773;28;20048;-89
2020/12/15 09:02:38;;;;;;;0.10;0.10;;;12.70;91.90;;;;;;4196747;28;20091;-87
2020/12/15 09:04:39;;;;;;;0.30;0.30;;;12.70;92.00;;;;;;4212740;28;20083;-91
2020/12/15 09:06:41;;;;;;;0.10;0.10;;;12.60;91.90;;;;;;4196377;28;20048;-91
2020/12/15 09:08:49;;;;;;;0.50;0.10;;;12.60;91.90;;;;;;4230417;28;20055;-91
2020/12/15 09:10:54;;;;;;;0.10;0.10;;;12.60;91.90;;;;;;4213114;28;20040;-89
2020/12/15 09:12:55;;;;;;;0.10;0.10;;;12.60;91.90;;;;;;4213358;28;20450;-86
2020/12/15 09:15:06;;;;;;;0.28;0.28;;;12.60;91.60;;;;;;4204789;28;20101;-88
2020/12/15 09:17:08;;;;;;;0.10;0.10;;;12.60;91.80;;;;;;4202772;28;20056;-93
2020/12/15 09:19:16;;;;;;;0.10;0.10;;;12.70;91.70;;;;;;4226382;28;20044;-92
2020/12/15 09:21:18;;;;;;;0.50;0.22;;;12.60;91.50;;;;;;4213700;28;20050;-92
2020/12/15 09:23:25;;;;;;;0.10;0.10;;;12.60;91.50;;;;;;4230437;28;20440;-91
2020/12/15 09:25:26;;;;;;;0.32;0.32;;;12.60;91.40;;;;;;4222181;28;20046;-82
2020/12/15 09:27:27;;;;;;;0.10;0.10;;;12.60;91.30;;;;;;4221539;28;20048;-95
2020/12/15 09:29:29;;;;;;;0.10;0.10;;;12.60;91.30;;;;;;4212907;28;20044;-91
2020/12/15 09:31:30;;;;;;;0.10;0.10;;;12.60;91.10;;;;;;4231044;28;20054;-94
2020/12/15 09:33:32;;;;;;;0.10;0.10;;;12.60;91.10;;;;;;4230803;28;20051;-91
2020/12/15 09:35:33;;;;;;;0.75;0.30;;;12.60;91.20;;;;;;4230259;28;20542;-94
2020/12/15 09:37:35;;;;;;;0.10;0.10;;;12.70;91.10;;;;;;4212429;28;20070;-94
2020/12/15 09:39:37;;;;;;;0.95;0.65;;;12.70;90.90;;;;;;4213415;28;20054;-93
2020/12/15 09:42:00;;;;;;;0.10;0.10;;;12.70;91.00;;;;;;4214921;28;20047;-96
2020/12/15 09:44:04;;;;;;;0.10;0.10;;;12.70;91.10;;;;;;4230082;28;20090;-94
2020/12/15 09:46:05;;;;;;;0.10;0.10;;;12.70;91.40;;;;;;4231551;28;20134;-96
2020/12/15 09:48:06;;;;;;;0.10;0.10;;;12.60;91.80;;;;;;4213531;28;20044;-95
2020/12/15 09:50:09;;;;;;;0.45;0.45;;;12.60;91.70;;;;;;4212110;28;20102;-95
2020/12/15 09:52:10;;;;;;;0.20;0.20;;;12.60;91.90;;;;;;4198704;28;20048;-94
2020/12/15 09:54:12;;;;;;;0.10;0.10;;;12.60;91.70;;;;;;4228954;28;20054;-87
2020/12/15 09:56:17;;;;;;;0.10;0.10;;;12.60;91.80;;;;;;4214539;28;20050;-96
2020/12/15 09:58:20;;;;;;;0.00;0.00;;;12.60;91.50;;;;;;4233485;28;20051;-95
2020/12/15 10:00:41;;;;;;;0.00;0.00;;;12.60;91.60;;;;;;4187322;28;20045;-95
2020/12/15 10:02:43;;;;;;;0.10;0.10;;;12.60;91.40;;;;;;4211254;28;20443;-96
2020/12/15 10:04:45;;;;;;;0.20;0.10;;;12.60;91.50;;;;;;4233215;28;20048;-94
2020/12/15 10:06:47;;;;;;;0.10;0.10;;;12.60;91.70;;;;;;4200878;28;20131;-94
2020/12/15 10:08:48;;;;;;;0.10;0.10;;;12.60;91.80;;;;;;4183861;28;20045;-96
2020/12/15 10:10:49;;;;;;;0.15;0.10;;;12.50;91.90;;;;;;4234829;28;20074;-93
2020/12/15 10:12:51;;;;;;;0.28;0.20;;;12.50;91.40;;;;;;4217512;28;20054;-91
2020/12/15 10:14:53;;;;;;;0.20;0.20;;;12.50;91.30;;;;;;4234818;28;20043;-92
2020/12/15 10:16:54;;;;;;;0.10;0.10;;;12.50;91.50;;;;;;4235710;28;20055;-96
2020/12/15 10:18:56;;;;;;;0.10;0.10;;;12.50;91.70;;;;;;4216371;28;20040;-96
2020/12/15 10:20:58;;;;;;;0.10;0.10;;;12.50;91.90;;;;;;4233491;28;20116;-96
2020/12/15 10:22:59;;;;;;;0.10;0.10;;;12.50;91.40;;;;;;4233895;28;20040;-96
2020/12/15 10:25:02;;;;;;;0.10;0.10;;;12.60;91.20;;;;;;4219688;28;20044;-96
2020/12/15 10:27:04;;;;;;;0.38;0.20;;;12.60;91.30;;;;;;4212379;28;20040;-95
2020/12/15 10:29:05;;;;;;;0.20;0.10;;;12.60;91.10;;;;;;4215770;28;20048;-96
2020/12/15 10:31:09;;;;;;;0.10;0.10;;;12.60;91.20;;;;;;4216440;28;20135;-91
2020/12/15 10:33:11;;;;;;;0.20;0.10;;;12.60;91.50;;;;;;4214646;28;20078;-96
2020/12/15 10:35:13;;;;;;;2.65;0.70;;;12.60;91.20;;;;;;4232724;28;20078;-96
2020/12/15 10:37:14;;;;;;;0.10;0.10;;;12.60;91.30;;;;;;4215083;28;20048;-96
2020/12/15 10:39:16;;;;;;;0.10;0.10;;;12.70;91.10;;;;;;4215263;28;20043;-96